aviador You're here:

KTUL Decoded Metar

TULSA in OK, USA
Report Time2017-11-24 17:53:00
UTC Time2017-11-24 18:26:42
Flight Rules vfr VFR
Wind170° at 15 kt
W.Decomp.*RWY 18: 14.4 kt HW 4.1 kt LCW
RWY 08: 1.6 kt HW 14.9 kt RCW
W.Rank170° ranks 1
Current wind is above 170° avg. (11.4)
Visibility9999 m
Phenomena:N/A
Clouds:Broken 250 Hf
Expected CloudBase > 7,600 ft AGL from Temp-Dew spread
Ceiling25,000 ft
Temp21°C (ISA +7)
Dew Point02°C (29% RH)
AAT14.0°C
QNH1009 hPa
Density Alt1,772 ft
Elevation679 ft
Report Wrong Elevation
Raw Report
KTUL 241753Z 17015KT 10SM BKN250 21/02 A2980 RMK AO2 SLP085
T02060017 10206 20083 58020=

Extra information for KTUL:More info

Metar Taf Metar & Taf Last 4 Metars F.Rules Stats Wind Profile Meteogram Temp Stats Airport Information Weather charts Add Link Nearby VenuesMetar ALERT Operation Metar Decoded Social comments

AIRNAV info for KTUL